createdAt,value
2022-10-31T00:03:22.184Z,100.00
2022-10-31T00:13:25.133Z,100.00
2022-10-31T00:23:28.447Z,100.00
2022-10-31T00:33:30.881Z,100.00
2022-10-31T00:43:33.811Z,100.00
2022-10-31T00:53:36.970Z,100.00
2022-10-31T01:03:41.394Z,100.00
2022-10-31T01:13:44.793Z,100.00
2022-10-31T01:23:47.557Z,100.00
2022-10-31T01:33:50.684Z,100.00
2022-10-31T01:43:58.019Z,100.00
2022-10-31T01:54:05.039Z,100.00
2022-10-31T02:04:09.319Z,100.00
2022-10-31T02:14:15.089Z,100.00
2022-10-31T02:24:46.637Z,100.00
2022-10-31T02:35:04.484Z,100.00
2022-10-31T02:45:10.344Z,100.00
2022-10-31T02:55:35.200Z,100.00
2022-10-31T03:05:50.989Z,100.00
2022-10-31T03:16:06.860Z,100.00
2022-10-31T03:26:12.849Z,100.00
2022-10-31T03:36:17.055Z,100.00
2022-10-31T03:46:20.492Z,100.00
2022-10-31T03:56:30.572Z,100.00
2022-10-31T04:06:37.432Z,100.00
2022-10-31T04:16:44.135Z,100.00
2022-10-31T04:26:47.053Z,100.00
2022-10-31T04:36:50.143Z,100.00
2022-10-31T04:46:53.678Z,100.00
2022-10-31T04:56:56.800Z,100.00
2022-10-31T05:06:59.974Z,100.00
2022-10-31T05:17:02.494Z,100.00
2022-10-31T05:27:05.193Z,100.00
2022-10-31T05:37:08.611Z,100.00
2022-10-31T05:47:12.615Z,100.00
2022-10-31T05:57:16.457Z,100.00
2022-10-31T06:07:19.845Z,100.00
2022-10-31T06:17:24.109Z,100.00
2022-10-31T06:27:27.109Z,100.00
2022-10-31T06:37:30.795Z,100.00
2022-10-31T06:47:38.048Z,100.00
2022-10-31T06:57:58.962Z,100.00
2022-10-31T07:08:08.695Z,100.00
2022-10-31T07:18:13.763Z,100.00
2022-10-31T07:28:17.271Z,100.00
2022-10-31T07:38:23.527Z,100.00
2022-10-31T07:48:30.526Z,100.00
2022-10-31T07:58:35.160Z,100.00
2022-10-31T08:08:39.510Z,100.00
2022-10-31T08:18:49.529Z,100.00
2022-10-31T08:40:28.511Z,100.00
2022-10-31T08:50:41.284Z,100.00
2022-10-31T09:00:47.191Z,100.00
2022-10-31T09:10:51.377Z,100.00
2022-10-31T09:21:03.959Z,100.00
2022-10-31T09:31:15.386Z,100.00
2022-10-31T09:52:37.470Z,100.00
2022-10-31T10:02:44.518Z,100.00
2022-10-31T10:13:24.798Z,100.00
2022-10-31T10:23:48.053Z,100.00
2022-10-31T10:34:25.188Z,100.00
2022-10-31T10:44:58.232Z,100.00
2022-10-31T10:55:05.242Z,100.00
2022-10-31T11:05:39.741Z,98.76
2022-10-31T11:16:01.081Z,97.67
2022-10-31T11:26:07.831Z,93.14
2022-10-31T11:36:21.018Z,92.02
2022-10-31T11:46:37.515Z,92.71
2022-10-31T11:57:06.720Z,92.47
2022-10-31T12:07:12.813Z,94.12
2022-10-31T12:17:41.886Z,91.83
2022-10-31T12:27:45.023Z,90.91
2022-10-31T12:38:20.606Z,91.11
2022-10-31T12:48:42.446Z,90.63
2022-10-31T12:58:56.204Z,88.49
2022-10-31T13:09:03.711Z,86.22
2022-10-31T13:19:12.779Z,83.33
2022-10-31T13:29:37.986Z,83.08
2022-10-31T13:40:10.446Z,81.31
2022-10-31T13:50:27.493Z,81.36
2022-10-31T14:00:49.066Z,82.85
2022-10-31T14:11:06.067Z,79.91
2022-10-31T14:21:31.287Z,80.13
2022-10-31T14:31:37.934Z,81.54
2022-10-31T14:42:00.112Z,83.44
2022-10-31T14:52:08.318Z,82.37
2022-10-31T15:02:42.233Z,85.91
2022-10-31T15:12:45.141Z,90.85
2022-10-31T15:22:49.792Z,93.79
2022-10-31T15:32:58.746Z,97.05
2022-10-31T15:43:06.676Z,100.00
2022-10-31T15:53:32.287Z,100.00
2022-10-31T16:03:44.535Z,100.00
2022-10-31T16:14:13.266Z,100.00
2022-10-31T16:24:24.147Z,100.00
2022-10-31T16:34:27.314Z,100.00
2022-10-31T16:44:30.154Z,100.00
2022-10-31T16:54:32.683Z,100.00
2022-10-31T17:14:39.116Z,100.00
2022-10-31T17:24:42.134Z,100.00
2022-10-31T17:34:44.813Z,100.00
2022-10-31T17:44:47.910Z,100.00
2022-10-31T17:54:50.460Z,100.00
2022-10-31T18:04:53.863Z,100.00
2022-10-31T18:14:57.109Z,100.00
2022-10-31T18:25:02.166Z,100.00
2022-10-31T18:35:06.130Z,100.00
2022-10-31T18:45:12.080Z,100.00
2022-10-31T18:55:26.805Z,100.00
2022-10-31T19:05:29.893Z,100.00
2022-10-31T19:15:35.014Z,100.00
2022-10-31T19:25:38.394Z,100.00
2022-10-31T19:35:41.180Z,100.00
2022-10-31T19:45:57.965Z,100.00
2022-10-31T19:56:01.203Z,100.00
2022-10-31T20:06:05.209Z,100.00
2022-10-31T20:16:12.103Z,100.00
2022-10-31T20:26:20.362Z,100.00
2022-10-31T20:36:23.914Z,100.00
2022-10-31T20:46:27.984Z,100.00
2022-10-31T20:56:30.849Z,100.00
2022-10-31T21:06:33.938Z,100.00
2022-10-31T21:16:37.087Z,100.00
2022-10-31T21:26:42.885Z,100.00
2022-10-31T21:36:45.886Z,100.00
2022-10-31T21:46:49.608Z,100.00
2022-10-31T21:56:52.410Z,100.00
2022-10-31T22:06:56.091Z,100.00
2022-10-31T22:16:58.462Z,100.00
2022-10-31T22:27:00.891Z,100.00
2022-10-31T22:37:03.289Z,100.00
2022-10-31T22:47:05.563Z,100.00
2022-10-31T22:57:07.975Z,100.00
2022-10-31T23:07:13.520Z,100.00
2022-10-31T23:17:20.336Z,100.00
2022-10-31T23:27:24.553Z,100.00
2022-10-31T23:37:29.627Z,100.00
2022-10-31T23:47:32.045Z,100.00
2022-10-31T23:57:34.396Z,100.00
